Latest Weather Observations for Marble Bar

IDW60801

Issued at 9:33 pm WST Wednesday 26 April 2017 (issued every 30 minutes, with the page automatically refreshed every 10 minutes)

About weather observations | Map of weather stations | Latest weather observations for WA | Other Formats
Station Details ID: 004106 Name: MARBLE BAR Lat: -21.18 Lon: 119.75 Height: 182.3 m
Data from the previous 72 hours. | See also: Recent months at Marble Bar
Date/Time
WST
Temp
°C
App
Temp
°C
Dew
Point
°C
Rel
Hum
%
Delta-T
°C
Wind Press
QNH
hPa
Press
MSL
hPa
Rain since
9am
mm
Dir  Spd
km/h
Gust
km/h
Spd
kts
Gust
kts
26/09:30pm 25.3 21.6 9.6 37 8.7 SE 19 28 10 15 1019.1 1017.9 0.0
26/09:00pm 25.3 22.8 11.1 41 8.0 SSE 15 22 8 12 1019.1 1017.9 0.0
26/08:30pm 25.4 23.1 11.9 43 7.8 SSE 15 20 8 11 1018.9 1017.7 0.0
26/08:00pm 25.9 24.3 12.7 44 7.7 SSE 13 22 7 12 1018.7 1017.5 0.0
26/07:30pm 26.0 24.9 13.2 45 7.5 SE 11 13 6 7 1018.1 1016.9 0.0
26/07:00pm 26.4 25.2 12.8 43 8.0 ESE 11 15 6 8 1017.5 1016.3 0.0
26/06:30pm 26.4 25.6 12.8 43 8.0 ESE 9 13 5 7 1016.9 1015.7 0.0
26/06:00pm 26.8 25.9 12.5 41 8.4 ESE 9 13 5 7 1016.6 1015.4 0.0
26/05:30pm 27.4 25.6 12.2 39 8.9 ESE 13 19 7 10 1016.2 1015.0 0.0
26/05:00pm 28.0 25.0 12.0 37 9.3 ESE 19 28 10 15 1016.0 1014.8 0.0
26/04:30pm 28.5 25.9 12.0 36 9.6 SE 17 22 9 12 1015.9 1014.7 0.0
26/04:00pm 29.0 26.1 12.4 36 9.8 SE 19 28 10 15 1015.6 1014.4 0.0
26/03:30pm 29.2 26.4 12.6 36 9.8 ESE 19 26 10 14 1015.3 1014.1 0.0
26/03:00pm 29.4 26.7 12.8 36 9.9 ESE 19 26 10 14 1015.5 1014.3 0.0
26/02:30pm 29.7 26.8 13.0 35 10.0 SE 20 32 11 17 1015.3 1014.1 0.0
26/02:00pm 29.4 26.6 13.2 37 9.7 SE 20 33 11 18 1015.3 1014.1 0.0
26/01:30pm 29.6 26.1 13.4 37 9.7 ESE 24 32 13 17 1015.4 1014.2 0.0
26/01:00pm 29.2 26.5 13.4 38 9.5 ESE 20 32 11 17 1015.6 1014.4 0.0
26/12:30pm 29.2 26.7 13.4 38 9.5 ESE 19 26 10 14 1015.9 1014.7 0.0
26/12:00pm 29.1 26.1 13.7 38 9.3 SE 22 35 12 19 1016.6 1015.4 0.0
26/11:30am 28.5 25.1 13.6 40 8.9 SE 24 37 13 20 1017.2 1016.0 0.0
26/11:00am 28.1 25.2 14.0 42 8.5 ESE 22 37 12 20 1017.9 1016.6 0.0
26/10:30am 27.3 23.9 13.6 43 8.2 SE 24 33 13 18 1018.3 1017.1 0.0
26/10:00am 27.5 24.3 14.2 44 8.0 ESE 24 33 13 18 1018.5 1017.3 0.0
26/09:30am 25.9 22.9 13.7 47 7.2 ESE 22 33 12 18 1018.8 1017.6 0.0
26/09:00am 25.0 23.1 14.2 51 6.4 ESE 17 24 9 13 1018.8 1017.6 0.0
26/08:30am 24.4 22.1 14.2 53 6.1 SE 19 28 10 15 1018.4 1017.2 0.0
26/08:00am 24.0 22.2 14.4 55 5.7 SE 17 26 9 14 1018.3 1017.1 0.0
26/07:30am 23.7 22.4 14.9 57 5.3 SE 15 24 8 13 1018.0 1016.7 0.0
26/07:00am 23.5 22.5 15.5 60 4.8 SE 15 20 8 11 1017.8 1016.5 0.0
26/06:30am 23.5 22.2 15.8 62 4.7 SE 17 22 9 12 1017.2 1016.0 0.0
26/06:00am 23.6 22.3 15.9 62 4.7 SE 17 22 9 12 1017.2 1016.0 0.0
26/05:30am 23.9 23.0 15.9 61 4.9 SE 15 24 8 13 1016.9 1015.7 0.0
26/05:00am 24.1 24.0 15.9 60 5.0 SE 11 17 6 9 1016.7 1015.5 0.0
26/04:30am 24.5 23.7 16.0 59 5.2 SE 15 22 8 12 1016.7 1015.5 0.0
26/04:00am 24.6 24.6 16.3 60 5.1 SE 11 17 6 9 1016.7 1015.5 0.0
26/03:30am 24.6 24.4 16.6 61 5.0 SE 13 17 7 9 1016.8 1015.6 0.0
26/03:00am 24.8 24.1 16.5 60 5.1 SE 15 20 8 11 1016.7 1015.5 0.0
26/02:30am 25.1 24.1 16.5 59 5.3 SE 17 22 9 12 1016.6 1015.4 0.0
26/02:00am 25.5 24.6 16.9 59 5.4 SE 17 26 9 14 1016.5 1015.3 0.0
26/01:30am 25.7 25.9 17.6 61 5.1 SE 13 19 7 10 1016.5 1015.3 0.0
26/01:00am 26.0 25.0 17.9 61 5.1 SE 20 26 11 14 1016.6 1015.4 0.0
26/12:30am 26.3 26.9 18.7 63 4.9 SE 13 19 7 10 1016.9 1015.7 0.0
26/12:00am 26.3 27.2 19.2 65 4.6 SE 13 15 7 8 1016.6 1015.4 0.0
 
Date/Time
WST
Temp
°C
App
Temp
°C
Dew
Point
°C
Rel
Hum
%
Delta-T
°C
Wind Press
QNH
hPa
Press
MSL
hPa
Rain since
9am
mm
Dir  Spd
km/h
Gust
km/h
Spd
kts
Gust
kts
25/11:30pm 26.6 27.1 19.2 64 4.8 SE 15 22 8 12 1016.7 1015.5 0.0
25/11:00pm 26.9 27.3 19.0 62 5.1 SE 15 20 8 11 1016.7 1015.5 0.0
25/10:30pm 26.9 27.9 19.5 64 4.8 SE 13 19 7 10 1016.6 1015.4 0.0
25/10:00pm 26.6 28.6 20.0 67 4.3 SE 9 13 5 7 1016.4 1015.2 0.0
25/09:30pm 27.1 29.0 19.7 64 4.8 SSE 9 15 5 8 1016.6 1015.4 0.0
25/09:00pm 27.3 28.3 19.4 62 5.1 SSE 13 17 7 9 1016.4 1015.2 0.0
25/08:30pm 27.6 28.9 19.4 61 5.3 S 11 17 6 9 1016.4 1015.2 0.0
25/08:00pm 27.5 29.7 19.6 62 5.2 S 7 11 4 6 1016.1 1014.9 0.0
25/07:30pm 28.2 29.5 19.4 59 5.7 S 11 13 6 7 1015.8 1014.6 0.0
25/07:00pm 28.1 30.4 19.9 61 5.4 SSW 7 11 4 6 1015.4 1014.2 0.0
25/06:30pm 28.4 30.7 19.9 60 5.6 SSW 7 9 4 5 1015.1 1013.9 0.0
25/06:00pm 29.0 30.8 19.6 57 6.2 SSW 9 15 5 8 1014.8 1013.6 0.0
25/05:30pm 29.7 30.8 18.8 52 7.1 S 11 15 6 8 1014.3 1013.1 0.0
25/05:00pm 30.4 31.9 18.8 50 7.6 SSW 9 13 5 7 1014.0 1012.8 0.0
25/04:30pm 30.8 31.1 17.8 45 8.4 SSW 13 17 7 9 1013.7 1012.5 0.0
25/04:00pm 31.2 31.9 17.9 45 8.6 SSW 11 19 6 10 1013.6 1012.4 0.0
25/03:30pm 31.7 31.9 17.6 43 9.1 SSW 13 19 7 10 1013.4 1012.2 0.0
25/03:00pm 32.0 32.3 17.1 41 9.5 S 11 17 6 9 1013.2 1012.0 0.0
25/02:30pm 32.4 33.3 17.5 41 9.6 S 9 19 5 10 1013.2 1012.0 0.0
25/02:00pm 32.5 33.0 17.5 40 9.7 SSW 11 17 6 9 1013.1 1011.8 0.0
25/01:30pm 33.2 34.8 18.2 41 9.8 SSW 7 17 4 9 1013.2 1012.0 0.0
25/01:00pm 33.1 34.2 18.1 41 9.8 SSW 9 17 5 9 1013.4 1012.2 0.0
25/12:30pm 32.1 33.5 17.9 42 9.2 SSW 7 11 4 6 1013.7 1012.5 0.0
25/12:00pm 32.2 34.3 18.0 42 9.2 S 4 7 2 4 1014.3 1013.1 0.0
25/11:30am 31.7 33.7 17.9 43 8.9 SE 4 9 2 5 1014.6 1013.4 0.0
25/11:00am 31.2 33.0 18.2 46 8.4 SSE 6 13 3 7 1015.1 1013.9 0.0
25/10:30am 30.7 32.5 18.8 49 7.8 SSE 7 13 4 7 1015.6 1014.4 0.0
25/10:00am 30.1 32.1 19.2 52 7.1 SE 7 13 4 7 1015.8 1014.6 0.0
25/09:30am 29.0 30.3 19.3 55 6.3 SE 11 15 6 8 1015.8 1014.6 0.0
25/09:00am 28.4 30.1 19.3 57 5.9 ESE 9 15 5 8 1016.0 1014.8 0.0
25/08:30am 27.4 28.7 19.2 61 5.3 SE 11 17 6 9 1016.1 1014.9 0.0
25/08:00am 26.4 28.1 19.3 65 4.6 SE 9 17 5 9 1015.6 1014.4 0.0
25/07:30am 24.3 28.4 20.8 81 2.3 CALM 0 0 0 0 1015.6 1014.4 0.0
25/07:00am 24.5 28.8 21.2 82 2.2 CALM 0 0 0 0 1015.4 1014.2 0.0
25/06:30am 22.6 25.6 20.9 90 1.1 SW 6 7 3 4 1015.4 1014.2 0.0
25/06:00am 22.7 26.0 20.8 89 1.2 SSW 4 6 2 3 1015.0 1013.8 0.0
25/05:30am 22.8 25.7 20.7 88 1.4 SSW 6 7 3 4 1014.8 1013.6 0.0
25/05:00am 22.8 25.9 20.3 86 1.6 SW 4 6 2 3 1014.6 1013.4 0.0
25/04:30am 23.3 26.7 20.2 83 2.0 S 2 4 1 2 1014.4 1013.2 0.0
25/04:00am 23.9 26.5 20.0 79 2.5 SE 6 9 3 5 1014.4 1013.2 0.0
25/03:30am 24.0 26.3 19.9 78 2.7 SSE 7 9 4 5 1014.0 1012.8 0.0
25/03:00am 24.7 27.4 19.5 73 3.4 SSE 4 7 2 4 1013.8 1012.6 0.0
25/02:30am 24.8 27.2 19.6 73 3.4 SW 6 7 3 4 1013.9 1012.7 0.0
25/02:00am 25.2 27.5 19.8 72 3.5 WSW 7 9 4 5 1014.0 1012.8 0.0
25/01:30am 25.6 27.7 20.2 72 3.5 SW 9 15 5 8 1014.1 1012.9 0.0
25/01:00am 25.6 29.0 20.2 72 3.5 SSW 2 4 1 2 1014.2 1013.0 0.0
25/12:30am 25.7 28.9 20.5 73 3.4 SW 4 6 2 3 1014.2 1013.0 0.0
25/12:00am 25.6 28.2 20.4 73 3.4 SW 7 7 4 4 1014.1 1012.9 0.0
 
Date/Time
WST
Temp
°C
App
Temp
°C
Dew
Point
°C
Rel
Hum
%
Delta-T
°C
Wind Press
QNH
hPa
Press
MSL
hPa
Rain since
9am
mm
Dir  Spd
km/h
Gust
km/h
Spd
kts
Gust
kts
24/11:30pm 26.4 29.5 20.3 69 4.0 SW 4 4 2 2 1014.1 1012.9 0.0
24/11:00pm 26.8 30.0 20.4 68 4.2 WSW 4 7 2 4 1014.1 1012.9 0.0
24/10:30pm 26.5 30.0 20.3 68 4.1 SE 2 4 1 2 1014.1 1012.9 0.0
24/10:00pm 26.4 29.9 20.3 69 4.0 WNW 2 6 1 3 1014.2 1013.0 0.0
24/09:30pm 26.3 29.5 19.7 67 4.3 NW 2 2 1 1 1014.2 1013.0 0.0
24/09:00pm 26.3 30.4 20.8 71 3.6 CALM 0 0 0 0 1014.2 1013.0 0.0
24/08:30pm 27.1 30.5 19.4 62 5.0 CALM 0 0 0 0 1014.1 1012.9 0.0
24/08:00pm 27.3 31.1 20.1 64 4.7 CALM 0 2 0 1 1013.9 1012.7 0.0
24/07:30pm 27.9 31.7 20.2 63 5.1 CALM 0 0 0 0 1013.7 1012.5 0.0
24/07:00pm 28.8 32.1 19.1 55 6.3 CALM 0 0 0 0 1013.3 1012.1 0.0
24/06:30pm 29.3 32.4 18.7 52 6.9 CALM 0 2 0 1 1013.0 1011.7 0.0
24/06:00pm 30.5 32.4 17.6 46 8.3 NW 4 6 2 3 1012.7 1011.4 0.0
24/05:30pm 32.1 33.7 16.8 40 9.7 W 4 6 2 3 1012.4 1011.1 0.0
24/05:00pm 32.5 33.3 15.9 36 10.5 NW 6 7 3 4 1012.4 1011.1 0.0
24/04:30pm 33.5 33.4 15.9 34 11.1 WNW 11 15 6 8 1012.1 1010.8 0.0
24/04:00pm 34.1 34.8 16.0 34 11.5 W 7 13 4 7 1012.0 1010.7 0.0
24/03:30pm 34.4 35.5 16.7 34 11.3 WNW 6 15 3 8 1011.8 1010.6 0.0
24/03:00pm 33.9 35.0 16.7 35 11.0 NW 6 11 3 6 1011.8 1010.6 0.0
24/02:30pm 34.4 35.9 16.7 34 11.3 WSW 4 9 2 5 1012.1 1010.8 0.0
24/02:00pm 33.8 34.9 16.6 35 11.0 WNW 6 13 3 7 1012.3 1011.0 0.0
24/01:30pm 33.7 34.2 17.4 37 10.5 WSW 11 17 6 9 1012.6 1011.3 0.0
24/01:00pm 33.0 34.0 16.8 38 10.4 SW 7 15 4 8 1012.9 1011.6 0.0
24/12:30pm 33.2 34.6 17.4 39 10.2 N 6 11 3 6 1013.2 1012.0 0.0
24/12:00pm 32.7 33.9 17.3 39 9.9 SSW 7 15 4 8 1013.7 1012.5 0.0
24/11:30am 32.2 34.3 18.0 42 9.2 SE 4 13 2 7 1014.3 1013.1 0.0
24/11:00am 32.0 33.8 18.2 43 9.0 SSE 6 11 3 6 1015.0 1013.8 0.0
24/10:30am 31.3 33.1 18.3 46 8.4 ESE 6 11 3 6 1015.4 1014.2 0.0
24/10:00am 30.5 32.4 18.9 50 7.6 E 7 13 4 7 1015.7 1014.5 0.0
24/09:30am 29.1 31.1 19.1 54 6.5 ESE 7 13 4 7 1015.9 1014.7 0.0
24/09:00am 28.0 30.3 19.8 61 5.4 SE 7 15 4 8 1016.0 1014.8 0.0
24/08:30am 26.8 28.7 19.7 65 4.6 SE 9 11 5 6 1016.0 1014.8 0.0
24/08:00am 25.7 28.3 20.0 71 3.7 SE 6 11 3 6 1015.9 1014.7 0.0
24/07:30am 24.2 28.3 20.7 81 2.3 CALM 0 4 0 2 1015.8 1014.6 0.0
24/07:00am 22.9 27.3 21.4 91 1.0 CALM 0 0 0 0 1015.6 1014.4 0.0
24/06:30am 21.9 26.0 20.7 93 0.8 CALM 0 4 0 2 1015.3 1014.1 0.0
24/06:00am 21.8 25.7 20.4 92 0.9 CALM 0 0 0 0 1015.0 1013.8 0.0
24/05:30am 22.0 25.2 20.5 91 1.0 NE 4 6 2 3 1014.9 1013.7 0.0
24/05:00am 22.5 26.5 20.6 89 1.2 CALM 0 0 0 0 1014.6 1013.4 0.0
24/04:30am 22.3 26.3 20.6 90 1.1 CALM 0 0 0 0 1014.6 1013.4 0.0
24/04:00am 22.5 26.4 20.4 88 1.4 CALM 0 2 0 1 1014.4 1013.2 0.0
24/03:30am 22.9 26.8 20.4 86 1.6 CALM 0 2 0 1 1014.6 1013.4 0.0
24/03:00am 23.3 26.5 20.4 84 1.9 SSW 4 6 2 3 1014.7 1013.5 0.0
24/02:30am 23.7 25.8 20.2 81 2.3 SSE 9 13 5 7 1014.7 1013.5 0.0
24/02:00am 23.8 26.6 20.5 82 2.2 SSE 6 7 3 4 1014.7 1013.5 0.0
24/01:30am 24.3 26.2 20.6 80 2.4 SSE 11 15 6 8 1014.8 1013.6 0.0
24/01:00am 24.9 27.5 21.2 80 2.5 SSE 9 13 5 7 1015.0 1013.8 0.0
24/12:30am 25.1 27.7 21.2 79 2.6 S 9 11 5 6 1015.0 1013.8 0.0
24/12:00am 25.3 27.3 19.9 72 3.5 S 9 11 5 6 1015.0 1013.8 0.0
 
Date/Time
WST
Temp
°C
App
Temp
°C
Dew
Point
°C
Rel
Hum
%
Delta-T
°C
Wind Press
QNH
hPa
Press
MSL
hPa
Rain since
9am
mm
Dir  Spd
km/h
Gust
km/h
Spd
kts
Gust
kts
23/11:30pm 25.1 27.4 20.6 76 3.0 SSW 9 11 5 6 1015.0 1013.8 0.0
23/11:00pm 24.9 28.1 20.6 77 2.8 S 4 6 2 3 1014.9 1013.7 0.0
23/10:30pm 25.2 29.3 20.7 76 3.0 CALM 0 0 0 0 1015.3 1014.1 0.0
23/10:00pm 25.1 28.9 20.1 74 3.3 CALM 0 0 0 0 1015.2 1014.0 0.0

Other Formats:

Comma delimited format used in spreadsheet applications
http://www.bom.gov.au/fwo/IDW60801/IDW60801.95317.axf

JavaScript Object Notation format (JSON) in row-major order
http://www.bom.gov.au/fwo/IDW60801/IDW60801.95317.json